HEAX

El Nouzha Airport

Alexandria, Egypt
METAR HEAX 152200Z 32006KT 9999 FEW020 27/20 Q1009 NOSIG
Observed Flight Rules
Aug-15 @ 22:00 UTC (26 minutes ago) Visual Flight Rules
Wind Visibility Clouds
320° at 6 knots 10,000+ meters
  • Few at 2,000' AGL
Temperatures Readings
Current 27°C / 81°F
Dewpoint 20°C / 68°F
Humidity 66%
Altimeter 29.79" Hg
Pressure 1009 hPa
Elevation 7
METAR HEAX 152200Z 32006KT 9999 FEW020 27/20 Q1009 NOSIG
Observed Flight Rules
Aug-15 @ 22:00 UTC
(26 minutes ago)
VFR
Wind Visibility
320° at 6 knots 10,000+ meters
Clouds
  • Few at 2,000' AGL
Temperature Dewpoint
27°C / 81°F 20°C / 68°F
Humidity Altimeter Pressure
66% 29.79" Hg 1009 hPa